KJAS/JAS METAR and TAF weather

Enter ICAO airport designator
Station Type Date Time Source
KJAS METAR 2020/08/14 01:15 UTC NOAA

KJAS 140115Z AUTO 00000KT 10SM CLR 30/26 A2995 RMK AO2 T02950262


Station Type Date Time Source
KJAS Decoded METAR 2020/08/14 01:15 UTC NOAA

Jasper, Jasper County-Bell Field Airport, TX, United States (KJAS) 30-53-08N 094-02-05W
Aug 13, 2020 - 09:15 PM EDT / 2020.08.14 0115 UTC
Wind: Calm:0
Visibility: 10 mile(s):0
Sky conditions: clear
Temperature: 85.1 F (29.5 C)
Heat index: 98.1 F (36.7 C):1
Dew Point: 79.2 F (26.2 C)
Relative Humidity: 82%
Pressure (altimeter): 29.95 in. Hg (1014 hPa)
ob: KJAS 140115Z AUTO 00000KT 10SM CLR 30/26 A2995 RMK AO2 T02950262
cycle: 1

Station Type Date Time Source
KJAS TAF UTC NOAA

Error!

Example: see airport list